Time;durP1;ratioP1;P1;durP2;ratioP2;P2;SDS_P1;SDS_P2;PMS_P1;PMS_P2;Temp;Humidity;BMP_temperature;BMP_pressure;BME280_temperature;BME280_humidity;BME280_pressure;Samples;Min_cycle;Max_cycle;Signal;HPM_P1;HPM_P2
2021/03/06 00:00:15;;;;;;;6.03;3.38;;;0.40;92.20;;;;;;5076444;28;20032;-88
2021/03/06 00:02:41;;;;;;;5.13;3.15;;;0.40;92.10;;;;;;5075353;28;20032;-88
2021/03/06 00:05:08;;;;;;;6.72;4.03;;;0.40;92.20;;;;;;5092483;28;20028;-88
2021/03/06 00:07:34;;;;;;;7.88;4.55;;;0.40;91.10;;;;;;5076414;28;20036;-88
2021/03/06 00:10:00;;;;;;;8.25;4.47;;;0.50;91.60;;;;;;5075471;28;20119;-88
2021/03/06 00:12:26;;;;;;;6.78;3.97;;;0.40;91.10;;;;;;5091711;28;20465;-88
2021/03/06 00:14:52;;;;;;;7.43;4.03;;;0.40;91.50;;;;;;5075491;28;20029;-87
2021/03/06 00:17:18;;;;;;;4.53;3.42;;;0.50;91.70;;;;;;5076203;28;20025;-88
2021/03/06 00:19:44;;;;;;;4.72;3.40;;;0.40;90.00;;;;;;5075067;28;20082;-86
2021/03/06 00:22:09;;;;;;;5.82;3.45;;;0.40;90.30;;;;;;5076508;28;20778;-88
2021/03/06 00:24:35;;;;;;;7.80;4.10;;;0.50;91.00;;;;;;5092055;28;20191;-88
2021/03/06 00:27:01;;;;;;;7.03;4.32;;;0.50;90.00;;;;;;5076309;28;20035;-88
2021/03/06 00:29:27;;;;;;;16.35;6.78;;;0.50;90.40;;;;;;5076096;28;20031;-87
2021/03/06 00:31:52;;;;;;;19.45;7.75;;;0.50;90.30;;;;;;5076067;28;20017;-87
2021/03/06 00:34:18;;;;;;;25.45;9.95;;;0.50;90.20;;;;;;5075782;28;20060;-87
2021/03/06 00:36:44;;;;;;;22.90;9.18;;;0.40;88.60;;;;;;5074856;28;20074;-87
2021/03/06 00:39:10;;;;;;;21.05;8.02;;;0.40;90.40;;;;;;5074636;28;20433;-87
2021/03/06 00:41:35;;;;;;;8.23;3.78;;;0.50;90.80;;;;;;5091560;28;20025;-86
2021/03/06 00:44:02;;;;;;;3.05;2.22;;;0.50;87.40;;;;;;5075748;28;20032;-87
2021/03/06 00:46:28;;;;;;;6.53;3.10;;;0.50;86.10;;;;;;5075826;28;20048;-87
2021/03/06 00:48:53;;;;;;;10.95;5.47;;;0.60;87.60;;;;;;5074566;28;20111;-88
2021/03/06 00:51:19;;;;;;;9.55;4.20;;;0.60;80.80;;;;;;5074702;28;20487;-87
2021/03/06 00:53:45;;;;;;;8.48;5.40;;;0.60;84.50;;;;;;5075418;28;20025;-87
2021/03/06 00:56:11;;;;;;;7.15;4.50;;;0.70;84.60;;;;;;5075118;28;20043;-88
2021/03/06 00:58:37;;;;;;;5.18;3.40;;;0.70;86.00;;;;;;5073965;28;20024;-87
2021/03/06 01:01:05;;;;;;;5.03;3.05;;;0.70;87.10;;;;;;5075653;28;20028;-87
2021/03/06 01:03:31;;;;;;;6.60;4.13;;;0.70;83.20;;;;;;5074017;28;20025;-87
2021/03/06 01:05:57;;;;;;;13.40;5.22;;;0.70;80.50;;;;;;5076481;28;20031;-87
2021/03/06 01:08:23;;;;;;;8.35;3.83;;;0.70;83.20;;;;;;5094891;28;20028;-87
2021/03/06 01:10:49;;;;;;;7.30;2.97;;;0.70;84.30;;;;;;5074119;28;20020;-87
2021/03/06 01:13:16;;;;;;;4.68;2.65;;;0.80;84.70;;;;;;5073552;28;20167;-87
2021/03/06 01:15:42;;;;;;;7.97;2.85;;;0.80;84.10;;;;;;5075153;28;20134;-87
2021/03/06 01:18:08;;;;;;;3.67;2.15;;;0.80;84.60;;;;;;5074012;28;20040;-88
2021/03/06 01:20:35;;;;;;;3.78;2.45;;;0.70;83.80;;;;;;5074407;28;20020;-88
2021/03/06 01:23:01;;;;;;;6.22;3.58;;;0.70;84.80;;;;;;5073938;28;20133;-88
2021/03/06 01:25:26;;;;;;;12.23;4.20;;;0.70;84.10;;;;;;5073824;28;20116;-87
2021/03/06 01:27:52;;;;;;;8.95;3.83;;;0.80;84.90;;;;;;5090894;28;20131;-87
2021/03/06 01:30:19;;;;;;;7.28;3.03;;;0.80;85.60;;;;;;5073774;28;20033;-87
2021/03/06 01:32:45;;;;;;;4.65;2.83;;;0.80;84.40;;;;;;5073513;28;20478;-88
2021/03/06 01:35:12;;;;;;;3.35;2.45;;;0.70;84.70;;;;;;5073542;28;20064;-88
2021/03/06 01:37:39;;;;;;;3.80;2.58;;;0.80;85.90;;;;;;5073299;28;20025;-87
2021/03/06 01:40:06;;;;;;;8.20;4.22;;;0.80;86.20;;;;;;5073561;28;20096;-88
2021/03/06 01:42:32;;;;;;;11.10;5.68;;;0.80;86.20;;;;;;5073776;28;20371;-87
2021/03/06 01:44:57;;;;;;;8.30;4.70;;;0.80;86.50;;;;;;5073401;28;20031;-87
2021/03/06 01:47:23;;;;;;;11.13;5.38;;;0.80;86.80;;;;;;5074588;28;20059;-87
2021/03/06 01:49:49;;;;;;;11.38;5.63;;;0.80;86.70;;;;;;5073526;28;20103;-88
2021/03/06 01:52:15;;;;;;;14.05;5.90;;;0.70;85.60;;;;;;5090191;28;20787;-87
2021/03/06 01:54:43;;;;;;;10.27;4.80;;;0.60;86.00;;;;;;5074588;28;20027;-87
2021/03/06 01:57:08;;;;;;;14.18;5.80;;;0.60;85.30;;;;;;5073394;28;20049;-87
2021/03/06 01:59:34;;;;;;;8.48;4.05;;;0.60;84.70;;;;;;5073385;28;20169;-87
2021/03/06 02:02:00;;;;;;;5.68;3.83;;;0.60;86.30;;;;;;5074347;28;20027;-87
2021/03/06 02:04:27;;;;;;;4.78;3.17;;;0.60;85.10;;;;;;5073326;28;20027;-87
2021/03/06 02:06:54;;;;;;;6.55;3.72;;;0.70;86.00;;;;;;5074336;28;20027;-88
2021/03/06 02:09:19;;;;;;;6.75;3.30;;;0.70;86.10;;;;;;5073202;28;20046;-87
2021/03/06 02:12:22;;;;;;;6.05;3.90;;;0.60;85.90;;;;;;5074021;28;20128;-87
2021/03/06 02:15:16;;;;;;;6.35;4.07;;;0.60;85.20;;;;;;5073128;28;20024;-88
2021/03/06 02:17:51;;;;;;;6.35;4.57;;;0.60;86.00;;;;;;5073192;28;20025;-87
2021/03/06 02:20:25;;;;;;;6.72;4.55;;;0.60;86.10;;;;;;5074207;28;20032;-87
2021/03/06 02:23:24;;;;;;;5.15;3.90;;;0.50;86.10;;;;;;5072954;28;20202;-87
2021/03/06 02:25:52;;;;;;;7.65;4.22;;;0.50;86.80;;;;;;5062925;28;20035;-87
2021/03/06 02:28:44;;;;;;;6.47;4.47;;;0.50;87.20;;;;;;5073076;28;20024;-87
2021/03/06 02:31:12;;;;;;;8.27;4.68;;;0.50;87.20;;;;;;5089812;28;20035;-87
2021/03/06 02:33:43;;;;;;;8.70;4.80;;;0.40;87.30;;;;;;5072963;28;20031;-87
2021/03/06 02:36:12;;;;;;;8.10;4.78;;;0.50;87.60;;;;;;5072783;28;20029;-87
2021/03/06 02:38:41;;;;;;;9.20;5.20;;;0.40;87.60;;;;;;5072886;28;20466;-87
2021/03/06 02:41:10;;;;;;;9.50;5.30;;;0.40;87.40;;;;;;5072839;28;20037;-87
2021/03/06 02:43:36;;;;;;;13.18;5.47;;;0.40;87.60;;;;;;5073750;28;20115;-88
2021/03/06 02:46:06;;;;;;;10.65;5.95;;;0.40;87.40;;;;;;5074094;28;20059;-87
2021/03/06 02:48:33;;;;;;;8.13;5.82;;;0.40;87.50;;;;;;5076791;28;20040;-87
2021/03/06 02:50:58;;;;;;;14.68;6.68;;;0.40;87.40;;;;;;5075811;28;20029;-88
2021/03/06 02:53:24;;;;;;;10.85;6.25;;;0.20;87.00;;;;;;5073031;28;20167;-87
2021/03/06 02:55:50;;;;;;;9.15;5.63;;;0.30;87.40;;;;;;5089630;28;20463;-87
2021/03/06 02:58:39;;;;;;;9.15;6.13;;;0.20;87.20;;;;;;5073798;28;20028;-87
2021/03/06 03:01:28;;;;;;;8.45;5.40;;;0.20;86.90;;;;;;5072735;28;20025;-87
2021/03/06 03:04:39;;;;;;;10.75;5.80;;;0.20;87.20;;;;;;5067200;28;20032;-88
2021/03/06 03:07:08;;;;;;;;;;;0.10;86.00;;;;;;5052207;28;20387;-87
2021/03/06 03:09:37;;;;;;;9.73;5.15;;;0.00;86.10;;;;;;5071479;28;20361;-87
2021/03/06 03:12:08;;;;;;;8.85;4.90;;;0.00;86.30;;;;;;5072558;28;20060;-87
2021/03/06 03:15:08;;;;;;;8.15;4.88;;;0.10;85.80;;;;;;5072855;28;19912;-87
2021/03/06 03:17:46;;;;;;;6.82;4.75;;;0.10;85.80;;;;;;5072094;28;20029;-87
2021/03/06 03:20:33;;;;;;;10.38;5.10;;;0.10;84.40;;;;;;5073704;28;20028;-87
2021/03/06 03:23:08;;;;;;;7.72;4.80;;;0.10;85.30;;;;;;5076511;28;20083;-87
2021/03/06 03:25:37;;;;;;;8.10;4.65;;;0.00;84.00;;;;;;5074905;28;20028;-89
2021/03/06 03:28:05;;;;;;;8.30;4.88;;;0.00;84.10;;;;;;5091943;28;20035;-89
2021/03/06 03:30:31;;;;;;;7.13;4.90;;;0.00;84.00;;;;;;5075911;28;20028;-88
2021/03/06 03:32:59;;;;;;;10.18;5.65;;;0.00;84.70;;;;;;5092952;28;20112;-88
2021/03/06 03:35:26;;;;;;;8.95;4.82;;;-0.10;82.40;;;;;;5075855;28;20036;-88
2021/03/06 03:37:54;;;;;;;8.63;4.32;;;-0.10;84.30;;;;;;5075965;28;20020;-88
2021/03/06 03:40:21;;;;;;;6.45;3.92;;;-0.10;84.40;;;;;;5076168;28;20029;-89
2021/03/06 03:42:48;;;;;;;9.95;4.75;;;-0.10;83.10;;;;;;5077039;28;20025;-89
2021/03/06 03:45:17;;;;;;;8.93;4.28;;;-0.20;81.00;;;;;;5075920;28;20120;-89
2021/03/06 03:47:44;;;;;;;11.02;5.03;;;-0.10;80.90;;;;;;5075854;28;20082;-89
2021/03/06 03:50:12;;;;;;;5.93;3.60;;;-0.20;81.80;;;;;;5075701;28;20031;-88
2021/03/06 03:52:46;;;;;;;13.63;4.45;;;-0.20;80.80;;;;;;5076493;28;20035;-88
2021/03/06 03:55:12;;;;;;;4.88;3.25;;;-0.20;80.10;;;;;;5075930;28;20086;-87
2021/03/06 03:57:39;;;;;;;5.13;3.22;;;-0.20;80.50;;;;;;5076734;28;20048;-90
2021/03/06 04:00:08;;;;;;;10.68;4.40;;;-0.20;81.10;;;;;;5075569;28;20025;-87
2021/03/06 04:02:34;;;;;;;8.48;3.20;;;-0.30;79.80;;;;;;5078159;28;20059;-88
2021/03/06 04:05:00;;;;;;;6.88;3.90;;;-0.30;81.30;;;;;;5093177;28;20032;-88
2021/03/06 04:07:26;;;;;;;6.35;3.30;;;-0.30;80.10;;;;;;5075589;28;20096;-88
2021/03/06 04:09:51;;;;;;;4.72;3.20;;;-0.30;80.70;;;;;;5075331;28;20059;-88
2021/03/06 04:12:17;;;;;;;5.45;3.10;;;-0.30;81.00;;;;;;5076393;28;20101;-87
2021/03/06 04:14:43;;;;;;;4.25;3.00;;;-0.30;80.30;;;;;;5075160;28;20112;-88
2021/03/06 04:17:11;;;;;;;6.18;3.65;;;-0.40;80.50;;;;;;5091955;28;20024;-88
2021/03/06 04:19:36;;;;;;;6.55;4.00;;;-0.40;81.20;;;;;;5092134;28;20028;-88
2021/03/06 04:22:02;;;;;;;7.43;4.07;;;-0.40;81.20;;;;;;5075192;28;20542;-90
2021/03/06 04:24:28;;;;;;;8.40;4.40;;;-0.40;81.30;;;;;;5074902;28;20063;-90
2021/03/06 04:26:54;;;;;;;7.63;4.05;;;-0.60;81.10;;;;;;5076615;28;20025;-92
2021/03/06 04:29:23;;;;;;;8.40;5.15;;;-0.60;81.20;;;;;;5074921;28;20078;-90
2021/03/06 04:31:49;;;;;;;8.05;4.35;;;-0.80;81.10;;;;;;5084767;28;20028;-91
2021/03/06 04:34:15;;;;;;;8.60;4.10;;;-0.80;81.70;;;;;;5076756;28;20074;-92
2021/03/06 04:36:42;;;;;;;7.57;4.15;;;-0.80;82.40;;;;;;5074555;28;20025;-91
2021/03/06 04:39:09;;;;;;;7.63;4.80;;;-0.70;83.10;;;;;;5072641;28;20533;-91
2021/03/06 04:41:34;;;;;;;8.07;5.10;;;-0.70;83.40;;;;;;5073949;28;20063;-91
2021/03/06 04:44:01;;;;;;;9.40;5.82;;;-0.70;83.60;;;;;;5073515;28;20048;-92
2021/03/06 04:46:27;;;;;;;8.00;5.00;;;-0.80;83.60;;;;;;5071583;28;20035;-91
2021/03/06 04:48:53;;;;;;;8.35;5.22;;;-0.70;83.70;;;;;;5071591;28;20025;-91
2021/03/06 04:51:18;;;;;;;10.27;5.78;;;-0.80;83.80;;;;;;5071232;28;20132;-91
2021/03/06 04:53:44;;;;;;;7.60;4.80;;;-0.90;84.20;;;;;;5071641;28;20025;-92
2021/03/06 04:56:10;;;;;;;7.68;5.15;;;-0.90;84.40;;;;;;5072840;28;20094;-91
2021/03/06 04:58:35;;;;;;;8.82;5.45;;;-0.90;83.80;;;;;;5072985;28;20492;-90
2021/03/06 05:01:05;;;;;;;7.90;5.03;;;-0.90;83.90;;;;;;5072983;28;20086;-91
2021/03/06 05:03:31;;;;;;;10.77;4.70;;;-0.90;83.70;;;;;;5073543;28;20027;-92
2021/03/06 05:05:56;;;;;;;8.75;5.05;;;-0.90;84.00;;;;;;5074913;28;20458;-90
2021/03/06 05:08:22;;;;;;;7.50;5.07;;;-1.00;83.50;;;;;;5073232;28;20155;-90
2021/03/06 05:10:48;;;;;;;9.75;5.43;;;-1.00;83.70;;;;;;5073844;28;20028;-91
2021/03/06 05:13:13;;;;;;;9.98;5.57;;;-1.00;84.10;;;;;;5072573;28;20049;-90
2021/03/06 05:15:39;;;;;;;12.32;6.47;;;-1.10;84.30;;;;;;5073075;28;20046;-91
2021/03/06 05:18:05;;;;;;;9.45;4.82;;;-1.10;84.10;;;;;;5072946;28;20032;-90
2021/03/06 05:20:31;;;;;;;10.60;5.10;;;-1.10;82.40;;;;;;5073841;28;20024;-90
2021/03/06 05:22:56;;;;;;;8.77;5.10;;;-1.10;82.40;;;;;;5072603;28;20024;-90
2021/03/06 05:25:22;;;;;;;11.32;5.65;;;-1.20;81.80;;;;;;5073415;28;20021;-92
2021/03/06 05:27:52;;;;;;;10.40;5.00;;;-1.20;81.70;;;;;;5073498;28;20031;-94
2021/03/06 05:30:18;;;;;;;10.82;4.70;;;-1.20;81.30;;;;;;5089485;28;20055;-94
2021/03/06 05:32:44;;;;;;;12.75;6.13;;;-1.20;79.30;;;;;;5072414;28;20035;-93
2021/03/06 05:35:10;;;;;;;11.00;4.55;;;-1.20;80.10;;;;;;5073403;28;20024;-93
2021/03/06 05:37:36;;;;;;;14.50;5.68;;;-1.20;79.30;;;;;;5090569;28;20016;-93
2021/03/06 05:40:03;;;;;;;15.60;6.28;;;-1.20;80.10;;;;;;5075145;28;20029;-91
2021/03/06 05:42:29;;;;;;;13.20;7.10;;;-1.10;80.60;;;;;;5075274;28;20025;-93
2021/03/06 05:44:56;;;;;;;27.73;12.05;;;-1.10;79.60;;;;;;5074472;28;20494;-92
2021/03/06 05:47:22;;;;;;;22.83;11.55;;;-1.10;78.70;;;;;;5074735;28;20028;-90
2021/03/06 05:49:49;;;;;;;14.65;7.05;;;-1.20;77.30;;;;;;5073701;28;20035;-91
2021/03/06 05:52:19;;;;;;;20.73;8.63;;;-1.10;78.60;;;;;;5073828;28;20085;-93
2021/03/06 05:54:49;;;;;;;10.60;5.00;;;-1.20;77.00;;;;;;5090512;28;20020;-89
2021/03/06 05:57:22;;;;;;;6.82;4.35;;;-1.20;77.50;;;;;;5073063;28;20163;-89
2021/03/06 05:59:49;;;;;;;7.07;3.85;;;-1.20;77.60;;;;;;5072933;28;20115;-89
2021/03/06 06:02:19;;;;;;;5.35;3.10;;;-1.20;77.70;;;;;;5073973;28;20028;-89
2021/03/06 06:04:46;;;;;;;8.57;3.92;;;-1.10;77.40;;;;;;5072692;28;20017;-89
2021/03/06 06:07:17;;;;;;;12.50;4.78;;;-1.20;77.30;;;;;;5074576;28;20104;-89
2021/03/06 06:09:44;;;;;;;9.52;4.28;;;-1.20;76.60;;;;;;5073300;28;20394;-89
2021/03/06 06:12:10;;;;;;;9.80;4.03;;;-1.10;76.00;;;;;;5074523;28;20081;-89
2021/03/06 06:14:37;;;;;;;10.60;4.35;;;-1.10;76.70;;;;;;5080642;28;20029;-90
2021/03/06 06:17:07;;;;;;;7.82;4.07;;;-1.10;77.10;;;;;;5079863;28;20023;-89
2021/03/06 06:19:34;;;;;;;7.57;4.35;;;-1.00;77.20;;;;;;5072913;28;20028;-88
2021/03/06 06:22:01;;;;;;;20.23;8.02;;;-1.00;78.10;;;;;;5073221;28;20027;-89
2021/03/06 06:24:27;;;;;;;20.60;9.23;;;-1.00;77.80;;;;;;5072506;28;20027;-89
2021/03/06 06:27:05;;;;;;;14.70;7.32;;;-1.00;76.40;;;;;;5073013;28;20497;-88
2021/03/06 06:29:48;;;;;;;24.23;11.13;;;-1.00;76.90;;;;;;5073206;28;20033;-88
2021/03/06 06:32:15;;;;;;;22.00;10.05;;;-1.20;76.10;;;;;;5073535;28;20062;-85
2021/03/06 06:34:43;;;;;;;19.30;8.77;;;-1.10;77.00;;;;;;5074637;28;20077;-88
2021/03/06 06:37:14;;;;;;;17.40;7.38;;;-1.20;76.50;;;;;;5072681;28;20027;-86
2021/03/06 06:39:42;;;;;;;14.85;7.30;;;-1.20;76.70;;;;;;5071647;28;20107;-87
2021/03/06 06:42:08;;;;;;;14.30;5.85;;;-1.20;77.30;;;;;;5072352;28;20448;-88
2021/03/06 06:44:36;;;;;;;7.10;4.13;;;-1.20;74.90;;;;;;5071294;28;20024;-87
2021/03/06 06:47:13;;;;;;;11.13;4.65;;;-1.20;74.70;;;;;;5072314;28;20017;-87
2021/03/06 06:49:53;;;;;;;6.00;3.35;;;-1.20;74.30;;;;;;5071182;28;20482;-87
2021/03/06 06:52:21;;;;;;;9.80;4.95;;;-1.30;74.00;;;;;;5071385;28;20494;-90
2021/03/06 06:54:54;;;;;;;7.65;3.00;;;-1.40;74.00;;;;;;5071509;28;20021;-88
2021/03/06 06:57:23;;;;;;;7.30;3.80;;;-1.40;74.30;;;;;;5072244;28;20021;-88
2021/03/06 07:00:11;;;;;;;8.57;4.05;;;-1.40;74.90;;;;;;5072097;28;20032;-89
2021/03/06 07:02:36;;;;;;;5.40;3.40;;;-1.40;75.20;;;;;;5071690;28;20031;-89
2021/03/06 07:05:06;;;;;;;6.45;3.65;;;-1.30;74.60;;;;;;5091831;28;20024;-89
2021/03/06 07:07:40;;;;;;;5.47;3.10;;;-1.20;74.70;;;;;;5091945;28;20021;-89
2021/03/06 07:10:12;;;;;;;8.82;4.47;;;-1.20;73.30;;;;;;5075095;28;20089;-89
2021/03/06 07:12:46;;;;;;;8.18;4.20;;;-1.40;72.20;;;;;;5074340;28;20044;-89
2021/03/06 07:15:12;;;;;;;10.05;5.07;;;-1.30;73.00;;;;;;5075686;28;20131;-88
2021/03/06 07:17:41;;;;;;;10.50;5.80;;;-1.30;74.40;;;;;;5075316;28;20021;-88
2021/03/06 07:20:10;;;;;;;10.18;5.18;;;-1.30;73.30;;;;;;5076467;28;20020;-88
2021/03/06 07:22:36;;;;;;;8.68;4.45;;;-1.30;73.00;;;;;;5074439;28;20032;-88
2021/03/06 07:25:03;;;;;;;9.75;6.45;;;-1.20;72.30;;;;;;5074328;28;20025;-88
2021/03/06 07:27:29;;;;;;;9.50;5.80;;;-1.20;72.80;;;;;;5075616;28;20031;-89
2021/03/06 07:29:55;;;;;;;8.38;5.50;;;-1.20;72.00;;;;;;5074845;28;20111;-88
2021/03/06 07:32:27;;;;;;;8.48;5.13;;;-1.20;73.10;;;;;;5074359;28;20025;-88
2021/03/06 07:34:58;;;;;;;21.35;12.35;;;-1.20;73.50;;;;;;5075644;28;20025;-88
2021/03/06 07:37:24;;;;;;;9.07;4.55;;;-1.20;73.30;;;;;;5092665;28;20016;-88
2021/03/06 07:39:51;;;;;;;18.38;10.00;;;-1.10;73.00;;;;;;5075745;28;20056;-88
2021/03/06 07:42:24;;;;;;;10.43;5.55;;;-1.10;73.50;;;;;;5076220;28;20058;-88
2021/03/06 07:44:52;;;;;;;12.95;9.32;;;-1.00;72.60;;;;;;5075735;28;20056;-88
2021/03/06 07:47:23;;;;;;;6.75;4.30;;;-0.90;73.10;;;;;;5075782;28;20025;-88
2021/03/06 07:49:51;;;;;;;6.10;4.90;;;-1.00;73.00;;;;;;5075888;28;20478;-87
2021/03/06 07:52:18;;;;;;;5.90;4.20;;;-0.90;74.00;;;;;;5075473;28;20020;-88
2021/03/06 07:54:44;;;;;;;4.50;2.97;;;-0.80;73.30;;;;;;5075653;28;20024;-86
2021/03/06 07:57:10;;;;;;;5.20;3.15;;;-0.80;72.10;;;;;;5085799;28;20446;-86
2021/03/06 07:59:49;;;;;;;5.25;3.40;;;-0.90;72.10;;;;;;5083422;28;20027;-87
2021/03/06 08:02:47;;;;;;;3.70;3.00;;;-0.90;72.50;;;;;;5074505;28;20024;-87
2021/03/06 08:05:44;;;;;;;7.50;3.40;;;-0.80;72.80;;;;;;5051786;28;20033;-87
2021/03/06 08:08:09;;;;;;;4.07;2.80;;;-0.90;71.00;;;;;;5090964;28;20024;-87
2021/03/06 08:11:11;;;;;;;4.45;2.90;;;-0.90;70.40;;;;;;5075456;28;20369;-87
2021/03/06 08:13:42;;;;;;;4.78;3.17;;;-0.90;70.20;;;;;;5074084;28;20163;-87
2021/03/06 08:16:22;;;;;;;8.02;3.55;;;-0.90;71.50;;;;;;5075157;28;20049;-87
2021/03/06 08:18:48;;;;;;;;;;;-0.80;71.60;;;;;;5075607;28;20124;-87
2021/03/06 08:21:37;;;;;;;5.00;3.10;;;-0.80;71.00;;;;;;5074197;28;20380;-87
2021/03/06 08:24:15;;;;;;;5.30;3.42;;;-0.80;68.70;;;;;;5074317;28;20030;-87
2021/03/06 08:26:52;;;;;;;9.50;3.90;;;-0.70;70.40;;;;;;5075070;28;20024;-87
2021/03/06 08:29:24;;;;;;;6.07;3.30;;;-0.70;70.90;;;;;;5075275;28;20141;-87
2021/03/06 08:32:16;;;;;;;5.10;3.25;;;-0.70;70.20;;;;;;5074610;28;20036;-87
2021/03/06 08:34:48;;;;;;;3.67;2.92;;;-0.70;68.70;;;;;;5073688;28;20424;-87
2021/03/06 08:37:16;;;;;;;6.68;3.20;;;-0.60;69.40;;;;;;5072495;28;20021;-87
2021/03/06 08:40:27;;;;;;;9.27;6.00;;;-0.60;70.30;;;;;;5072067;28;20055;-87
2021/03/06 08:42:55;;;;;;;7.93;5.28;;;-0.50;70.90;;;;;;5039248;28;20470;-87
2021/03/06 08:45:29;;;;;;;8.25;3.40;;;-0.40;71.30;;;;;;5073042;28;20089;-86
2021/03/06 08:48:01;;;;;;;5.30;3.10;;;-0.40;70.30;;;;;;5073259;28;20506;-87
2021/03/06 08:50:28;;;;;;;9.35;5.18;;;-0.40;70.40;;;;;;5072952;28;20025;-87
2021/03/06 08:52:58;;;;;;;15.13;7.22;;;-0.40;70.70;;;;;;5072497;28;20121;-87
2021/03/06 08:55:27;;;;;;;8.70;4.38;;;-0.30;70.50;;;;;;5071817;28;20052;-87
2021/03/06 08:57:53;;;;;;;8.70;4.18;;;-0.30;70.40;;;;;;5071563;28;20115;-87
2021/03/06 09:00:32;;;;;;;7.57;4.50;;;-0.30;69.80;;;;;;5071410;28;20033;-87
2021/03/06 09:03:12;;;;;;;7.15;3.67;;;-0.30;70.50;;;;;;5072998;28;20020;-87
2021/03/06 09:05:39;;;;;;;5.18;3.47;;;-0.30;70.30;;;;;;5071544;28;20047;-87
2021/03/06 09:08:05;;;;;;;8.40;3.60;;;-0.20;68.80;;;;;;5072127;28;20036;-87
2021/03/06 09:10:40;;;;;;;6.50;3.45;;;-0.20;69.70;;;;;;5071381;28;20055;-87
2021/03/06 09:13:19;;;;;;;6.55;3.10;;;-0.20;69.10;;;;;;5072042;28;20057;-87
2021/03/06 09:16:02;;;;;;;10.10;4.13;;;-0.10;70.50;;;;;;5072691;28;20348;-87
2021/03/06 09:18:30;;;;;;;4.82;3.20;;;0.00;69.00;;;;;;5071883;28;20023;-87
2021/03/06 09:21:23;;;;;;;6.88;3.28;;;0.00;68.80;;;;;;5071024;28;20044;-87
2021/03/06 09:23:52;;;;;;;6.72;3.45;;;0.10;68.60;;;;;;5071081;28;20496;-87
2021/03/06 09:26:19;;;;;;;6.15;2.92;;;0.10;67.40;;;;;;5070872;28;20123;-87
2021/03/06 09:28:46;;;;;;;6.45;3.50;;;0.10;67.10;;;;;;5071179;28;20111;-86
2021/03/06 09:31:33;;;;;;;6.53;3.15;;;0.10;66.80;;;;;;5071154;28;20032;-86
2021/03/06 09:33:59;;;;;;;7.00;3.17;;;0.20;65.90;;;;;;5071882;28;20025;-87
2021/03/06 09:36:29;;;;;;;7.32;3.75;;;0.20;65.50;;;;;;5071325;28;20470;-86
2021/03/06 09:39:02;;;;;;;8.77;3.33;;;0.10;64.80;;;;;;5073799;28;20034;-87
2021/03/06 09:41:30;;;;;;;4.80;3.15;;;0.20;66.30;;;;;;5074877;28;20029;-87
2021/03/06 09:43:58;;;;;;;7.38;3.80;;;0.30;65.10;;;;;;5074733;28;20035;-86
2021/03/06 09:46:35;;;;;;;6.28;3.65;;;0.40;65.50;;;;;;5074267;28;20060;-86
2021/03/06 09:49:09;;;;;;;4.82;2.95;;;0.40;64.90;;;;;;5075011;28;20046;-86
2021/03/06 09:51:40;;;;;;;4.90;2.58;;;0.50;65.60;;;;;;5074867;28;20079;-86
2021/03/06 09:54:07;;;;;;;4.78;2.70;;;0.50;65.50;;;;;;5073395;28;20032;-86
2021/03/06 09:56:33;;;;;;;5.10;2.95;;;0.60;65.30;;;;;;5090316;28;20078;-86
2021/03/06 09:59:05;;;;;;;5.32;3.50;;;0.60;63.80;;;;;;5073213;28;20402;-87
2021/03/06 10:01:33;;;;;;;4.25;2.80;;;0.70;63.60;;;;;;5073524;28;20021;-86
2021/03/06 10:04:07;;;;;;;7.78;4.15;;;0.70;64.90;;;;;;5073544;28;20067;-86
2021/03/06 10:06:36;;;;;;;13.90;5.93;;;0.80;62.90;;;;;;5073392;28;20061;-86
2021/03/06 10:09:05;;;;;;;10.38;5.38;;;0.80;61.30;;;;;;5074557;28;20025;-87
2021/03/06 10:11:39;;;;;;;12.55;5.65;;;0.80;61.80;;;;;;5073304;28;20025;-86
2021/03/06 10:14:07;;;;;;;5.82;3.40;;;0.80;59.90;;;;;;5073473;28;20457;-87
2021/03/06 10:16:52;;;;;;;6.45;3.20;;;0.90;61.00;;;;;;5073217;28;20070;-87
2021/03/06 10:19:20;;;;;;;2.92;2.50;;;1.00;61.10;;;;;;5074479;28;20027;-87
2021/03/06 10:22:16;;;;;;;3.03;2.30;;;1.00;61.60;;;;;;5089893;28;20053;-87
2021/03/06 10:25:03;;;;;;;4.93;2.35;;;1.00;62.40;;;;;;5064775;28;20044;-87
2021/03/06 10:27:42;;;;;;;2.97;2.10;;;1.00;60.40;;;;;;5073140;28;20394;-86
2021/03/06 10:30:36;;;;;;;4.30;2.72;;;1.10;61.10;;;;;;5075764;28;20044;-86
2021/03/06 10:33:04;;;;;;;4.13;2.20;;;1.10;60.10;;;;;;5072598;28;20060;-86
2021/03/06 10:35:44;;;;;;;11.48;4.45;;;1.20;59.90;;;;;;5078256;28;20497;-86
2021/03/06 10:38:31;;;;;;;8.23;4.07;;;1.20;59.70;;;;;;5074835;28;20028;-86
2021/03/06 10:41:01;;;;;;;2.92;2.30;;;1.30;59.30;;;;;;5075222;28;20024;-85
2021/03/06 10:43:40;;;;;;;4.53;2.90;;;1.30;60.60;;;;;;5075118;28;20121;-86
2021/03/06 10:46:15;;;;;;;5.55;2.67;;;1.20;61.40;;;;;;5075192;28;20036;-86
2021/03/06 10:48:43;;;;;;;6.53;3.67;;;1.30;60.30;;;;;;5075065;28;20035;-87
2021/03/06 10:51:10;;;;;;;6.97;3.72;;;1.30;61.00;;;;;;5076130;28;20025;-86
2021/03/06 10:53:36;;;;;;;4.97;3.30;;;1.30;58.70;;;;;;5075979;28;20024;-86
2021/03/06 10:56:07;;;;;;;2.78;2.45;;;1.30;60.30;;;;;;5074935;28;20120;-86
2021/03/06 10:58:44;;;;;;;6.60;3.10;;;1.30;58.90;;;;;;5075982;28;20036;-87
2021/03/06 11:01:12;;;;;;;9.63;4.80;;;1.40;59.10;;;;;;5074744;28;20024;-86
2021/03/06 11:03:45;;;;;;;13.32;5.75;;;1.50;59.00;;;;;;5074570;28;20408;-87
2021/03/06 11:06:11;;;;;;;6.20;3.92;;;1.50;57.00;;;;;;5075669;28;20031;-87
2021/03/06 11:08:38;;;;;;;8.73;4.68;;;1.50;55.30;;;;;;5074650;28;20025;-86
2021/03/06 11:11:05;;;;;;;10.93;4.50;;;1.50;56.60;;;;;;5074423;28;20425;-86
2021/03/06 11:13:45;;;;;;;23.65;8.35;;;1.40;55.00;;;;;;5074359;28;20049;-87
2021/03/06 11:16:12;;;;;;;5.97;3.42;;;1.50;56.90;;;;;;5075632;28;20086;-87
2021/03/06 11:18:41;;;;;;;3.60;2.67;;;1.50;56.10;;;;;;5076456;28;20352;-86
2021/03/06 11:21:10;;;;;;;4.50;3.08;;;1.50;55.70;;;;;;5090023;28;20021;-87
2021/03/06 11:23:36;;;;;;;299.20;85.82;;;1.50;55.90;;;;;;5075221;28;20032;-87
2021/03/06 11:26:02;;;;;;;25.17;10.50;;;1.60;56.30;;;;;;5091278;28;20028;-88
2021/03/06 11:28:27;;;;;;;9.73;5.75;;;1.70;56.60;;;;;;5073973;28;20109;-89
2021/03/06 11:30:53;;;;;;;4.80;3.05;;;1.70;55.40;;;;;;5073823;28;20029;-88
2021/03/06 11:33:19;;;;;;;9.93;5.43;;;1.70;53.60;;;;;;5090208;28;20111;-87
2021/03/06 11:35:46;;;;;;;3.40;2.22;;;1.70;54.90;;;;;;5074492;28;20099;-87
2021/03/06 11:38:14;;;;;;;4.20;2.70;;;1.70;53.70;;;;;;5074774;28;20432;-86
2021/03/06 11:40:43;;;;;;;6.00;3.63;;;1.70;53.90;;;;;;5074085;28;20028;-86
2021/03/06 11:43:10;;;;;;;88.32;25.02;;;1.70;49.10;;;;;;5074560;28;20078;-86
2021/03/06 11:45:36;;;;;;;193.30;60.70;;;1.80;49.80;;;;;;5074028;28;20039;-86
2021/03/06 11:48:02;;;;;;;14.65;6.97;;;1.80;49.70;;;;;;5091282;28;20032;-86
2021/03/06 11:50:31;;;;;;;2.85;2.10;;;1.80;50.50;;;;;;5074230;28;20036;-90
2021/03/06 11:52:57;;;;;;;5.38;3.65;;;1.80;50.50;;;;;;5074544;28;20024;-87
2021/03/06 11:55:23;;;;;;;5.85;4.03;;;1.90;50.50;;;;;;5074239;28;20132;-86
2021/03/06 11:57:49;;;;;;;3.90;2.72;;;2.00;51.80;;;;;;5074317;28;20021;-86
2021/03/06 12:00:23;;;;;;;2.88;2.17;;;2.00;48.60;;;;;;5075059;28;20017;-87
2021/03/06 12:02:49;;;;;;;3.40;1.95;;;1.80;47.50;;;;;;5074245;28;20051;-85
2021/03/06 12:05:16;;;;;;;3.17;2.00;;;1.80;48.60;;;;;;5074383;28;20032;-86
2021/03/06 12:07:43;;;;;;;2.92;2.00;;;1.90;50.50;;;;;;5091040;28;20024;-87
2021/03/06 12:10:12;;;;;;;3.38;2.22;;;2.00;50.20;;;;;;5075302;28;20024;-87
2021/03/06 12:12:39;;;;;;;5.03;2.92;;;2.10;49.20;;;;;;5073834;28;20109;-84
2021/03/06 12:15:06;;;;;;;7.18;2.30;;;2.20;49.70;;;;;;5074906;28;20036;-84
2021/03/06 12:17:32;;;;;;;4.88;2.33;;;2.30;50.90;;;;;;5074983;28;20024;-84
2021/03/06 12:19:58;;;;;;;6.22;2.60;;;2.30;49.20;;;;;;5074001;28;20024;-89
2021/03/06 12:22:24;;;;;;;6.80;3.55;;;2.20;50.30;;;;;;5073996;28;20108;-87
2021/03/06 12:24:49;;;;;;;4.68;3.30;;;2.20;50.60;;;;;;5073918;28;20017;-86
2021/03/06 12:27:15;;;;;;;8.10;5.53;;;2.20;51.10;;;;;;5075126;28;20032;-87
2021/03/06 12:29:42;;;;;;;4.93;3.53;;;2.20;51.30;;;;;;5073872;28;20024;-87
2021/03/06 12:32:08;;;;;;;13.40;7.40;;;2.30;50.10;;;;;;5074516;28;20024;-87
2021/03/06 12:34:33;;;;;;;141.90;50.88;;;2.40;51.30;;;;;;5074918;28;20020;-88
2021/03/06 12:36:59;;;;;;;31.90;10.93;;;2.30;51.00;;;;;;5072499;28;20097;-88
2021/03/06 12:39:26;;;;;;;6.55;4.20;;;2.40;51.50;;;;;;5088954;28;20474;-88
2021/03/06 12:41:53;;;;;;;8.13;3.95;;;2.50;52.60;;;;;;5072117;28;20028;-88
2021/03/06 12:44:19;;;;;;;3.45;2.40;;;2.50;52.30;;;;;;5072027;28;20025;-88
2021/03/06 12:46:47;;;;;;;4.30;2.28;;;2.50;51.80;;;;;;5071719;28;20035;-88
2021/03/06 12:49:14;;;;;;;3.92;2.72;;;2.60;53.10;;;;;;5071820;28;20088;-87
2021/03/06 12:51:39;;;;;;;6.35;3.85;;;2.60;51.50;;;;;;5072607;28;20028;-87
2021/03/06 12:54:06;;;;;;;4.72;3.03;;;2.70;51.90;;;;;;5070424;28;20058;-86
2021/03/06 12:56:32;;;;;;;2.42;2.22;;;2.80;50.20;;;;;;5072974;28;20059;-87
2021/03/06 12:58:58;;;;;;;5.50;3.28;;;2.90;50.00;;;;;;5071438;28;20060;-84
2021/03/06 13:01:23;;;;;;;4.32;2.40;;;2.90;48.60;;;;;;5079650;28;20024;-85
2021/03/06 13:03:49;;;;;;;6.45;2.00;;;3.10;50.30;;;;;;5083386;28;20040;-85